sensor_id;sensor_type;location;lat;lon;timestamp;pressure;altitude;pressure_sealevel;temperature
27986;BMP280;15453;53.692;10.168;2023-04-03T00:01:05;103042.56;;;6.98
27986;BMP280;15453;53.692;10.168;2023-04-03T00:03:30;103050.75;;;6.98
27986;BMP280;15453;53.692;10.168;2023-04-03T00:05:56;103056.34;;;6.97
27986;BMP280;15453;53.692;10.168;2023-04-03T00:08:21;103049.19;;;6.96
27986;BMP280;15453;53.692;10.168;2023-04-03T00:10:47;103052.44;;;6.91
27986;BMP280;15453;53.692;10.168;2023-04-03T00:13:13;103057.19;;;6.89
27986;BMP280;15453;53.692;10.168;2023-04-03T00:15:39;103053.78;;;6.87
27986;BMP280;15453;53.692;10.168;2023-04-03T00:18:05;103057.72;;;6.85
27986;BMP280;15453;53.692;10.168;2023-04-03T00:20:30;103065.19;;;6.83
27986;BMP280;15453;53.692;10.168;2023-04-03T00:22:57;103062.63;;;6.81
27986;BMP280;15453;53.692;10.168;2023-04-03T00:25:22;103057.38;;;6.80
27986;BMP280;15453;53.692;10.168;2023-04-03T00:27:48;103057.38;;;6.80
27986;BMP280;15453;53.692;10.168;2023-04-03T00:30:15;103057.00;;;6.75
27986;BMP280;15453;53.692;10.168;2023-04-03T00:32:41;103060.09;;;6.72
27986;BMP280;15453;53.692;10.168;2023-04-03T00:35:06;103061.28;;;6.69
27986;BMP280;15453;53.692;10.168;2023-04-03T00:37:32;103060.56;;;6.67
27986;BMP280;15453;53.692;10.168;2023-04-03T00:39:57;103062.63;;;6.65
27986;BMP280;15453;53.692;10.168;2023-04-03T00:42:24;103066.34;;;6.64
27986;BMP280;15453;53.692;10.168;2023-04-03T00:47:21;103068.72;;;6.59
27986;BMP280;15453;53.692;10.168;2023-04-03T00:49:46;103066.31;;;6.56
27986;BMP280;15453;53.692;10.168;2023-04-03T00:52:14;103071.09;;;6.54
27986;BMP280;15453;53.692;10.168;2023-04-03T00:54:41;103081.31;;;6.52
27986;BMP280;15453;53.692;10.168;2023-04-03T00:57:08;103068.88;;;6.50
27986;BMP280;15453;53.692;10.168;2023-04-03T00:59:35;103071.06;;;6.46
27986;BMP280;15453;53.692;10.168;2023-04-03T01:02:03;103067.69;;;6.44
27986;BMP280;15453;53.692;10.168;2023-04-03T01:07:01;103073.63;;;6.40
27986;BMP280;15453;53.692;10.168;2023-04-03T01:09:27;103077.53;;;6.37
27986;BMP280;15453;53.692;10.168;2023-04-03T01:11:53;103072.41;;;6.34
27986;BMP280;15453;53.692;10.168;2023-04-03T01:14:18;103073.59;;;6.32
27986;BMP280;15453;53.692;10.168;2023-04-03T01:16:52;103076.47;;;6.30
27986;BMP280;15453;53.692;10.168;2023-04-03T01:19:18;103076.81;;;6.27
27986;BMP280;15453;53.692;10.168;2023-04-03T01:22:15;103076.97;;;6.26
27986;BMP280;15453;53.692;10.168;2023-04-03T01:24:43;103075.59;;;6.22
27986;BMP280;15453;53.692;10.168;2023-04-03T01:27:09;103076.78;;;6.19
27986;BMP280;15453;53.692;10.168;2023-04-03T01:29:35;103077.94;;;6.16
27986;BMP280;15453;53.692;10.168;2023-04-03T01:32:02;103080.84;;;6.15
27986;BMP280;15453;53.692;10.168;2023-04-03T01:34:29;103087.47;;;6.13
27986;BMP280;15453;53.692;10.168;2023-04-03T01:36:55;103091.19;;;6.11
27986;BMP280;15453;53.692;10.168;2023-04-03T01:39:21;103091.19;;;6.11
27986;BMP280;15453;53.692;10.168;2023-04-03T01:41:46;103078.94;;;6.07
27986;BMP280;15453;53.692;10.168;2023-04-03T01:44:12;103076.56;;;6.04
27986;BMP280;15453;53.692;10.168;2023-04-03T01:46:37;103074.16;;;6.01
27986;BMP280;15453;53.692;10.168;2023-04-03T01:49:03;103071.75;;;5.98
27986;BMP280;15453;53.692;10.168;2023-04-03T01:51:29;103077.34;;;5.97
27986;BMP280;15453;53.692;10.168;2023-04-03T01:53:54;103082.13;;;5.95
27986;BMP280;15453;53.692;10.168;2023-04-03T01:56:19;103075.13;;;5.92
27986;BMP280;15453;53.692;10.168;2023-04-03T01:58:45;103076.31;;;5.90
27986;BMP280;15453;53.692;10.168;2023-04-03T02:01:10;103080.03;;;5.89
27986;BMP280;15453;53.692;10.168;2023-04-03T02:03:35;103083.09;;;5.86
27986;BMP280;15453;53.692;10.168;2023-04-03T02:06:01;103083.25;;;5.84
27986;BMP280;15453;53.692;10.168;2023-04-03T02:08:26;103079.00;;;5.82
27986;BMP280;15453;53.692;10.168;2023-04-03T02:10:52;103092.75;;;5.80
27986;BMP280;15453;53.692;10.168;2023-04-03T02:13:18;103092.75;;;5.80
27986;BMP280;15453;53.692;10.168;2023-04-03T02:15:43;103091.34;;;5.76
27986;BMP280;15453;53.692;10.168;2023-04-03T02:18:08;103091.34;;;5.76
27986;BMP280;15453;53.692;10.168;2023-04-03T02:20:34;103089.09;;;5.72
27986;BMP280;15453;53.692;10.168;2023-04-03T02:22:59;103083.78;;;5.70
27986;BMP280;15453;53.692;10.168;2023-04-03T02:25:25;103086.72;;;5.69
27986;BMP280;15453;53.692;10.168;2023-04-03T02:27:51;103086.72;;;5.69
27986;BMP280;15453;53.692;10.168;2023-04-03T02:30:16;103085.31;;;5.65
27986;BMP280;15453;53.692;10.168;2023-04-03T02:32:42;103090.91;;;5.63
27986;BMP280;15453;53.692;10.168;2023-04-03T02:35:08;103088.03;;;5.65
27986;BMP280;15453;53.692;10.168;2023-04-03T02:37:34;103090.41;;;5.68
27986;BMP280;15453;53.692;10.168;2023-04-03T02:40:00;103088.41;;;5.70
27986;BMP280;15453;53.692;10.168;2023-04-03T02:42:25;103082.97;;;5.70
27986;BMP280;15453;53.692;10.168;2023-04-03T02:44:50;103090.09;;;5.71
27986;BMP280;15453;53.692;10.168;2023-04-03T02:47:15;103095.22;;;5.74
27986;BMP280;15453;53.692;10.168;2023-04-03T02:49:41;103095.22;;;5.74
27986;BMP280;15453;53.692;10.168;2023-04-03T02:52:08;103097.41;;;5.70
27986;BMP280;15453;53.692;10.168;2023-04-03T02:54:34;103104.72;;;5.70
27986;BMP280;15453;53.692;10.168;2023-04-03T02:56:59;103092.31;;;5.67
27986;BMP280;15453;53.692;10.168;2023-04-03T02:59:24;103097.91;;;5.66
27986;BMP280;15453;53.692;10.168;2023-04-03T03:01:49;103093.47;;;5.65
27986;BMP280;15453;53.692;10.168;2023-04-03T03:04:15;103092.75;;;5.63
27986;BMP280;15453;53.692;10.168;2023-04-03T03:06:40;103092.75;;;5.63
27986;BMP280;15453;53.692;10.168;2023-04-03T03:09:06;103089.69;;;5.58
27986;BMP280;15453;53.692;10.168;2023-04-03T03:11:31;103099.84;;;5.56
27986;BMP280;15453;53.692;10.168;2023-04-03T03:13:56;103084.88;;;5.52
27986;BMP280;15453;53.692;10.168;2023-04-03T03:16:22;103096.75;;;5.51
27986;BMP280;15453;53.692;10.168;2023-04-03T03:18:47;103096.75;;;5.51
27986;BMP280;15453;53.692;10.168;2023-04-03T03:21:12;103094.53;;;5.46
27986;BMP280;15453;53.692;10.168;2023-04-03T03:23:37;103094.53;;;5.46
27986;BMP280;15453;53.692;10.168;2023-04-03T03:26:06;103097.72;;;5.42
27986;BMP280;15453;53.692;10.168;2023-04-03T03:28:32;103091.41;;;5.41
27986;BMP280;15453;53.692;10.168;2023-04-03T03:30:59;103088.03;;;5.39
27986;BMP280;15453;53.692;10.168;2023-04-03T03:33:25;103086.63;;;5.35
27986;BMP280;15453;53.692;10.168;2023-04-03T03:35:51;103083.38;;;5.32
27986;BMP280;15453;53.692;10.168;2023-04-03T03:38:17;103095.09;;;5.32
27986;BMP280;15453;53.692;10.168;2023-04-03T03:40:42;103095.09;;;5.32
27986;BMP280;15453;53.692;10.168;2023-04-03T03:43:08;103088.41;;;5.27
27986;BMP280;15453;53.692;10.168;2023-04-03T03:45:33;103094.03;;;5.25
27986;BMP280;15453;53.692;10.168;2023-04-03T03:47:58;103095.75;;;5.26
27986;BMP280;15453;53.692;10.168;2023-04-03T03:50:23;103095.75;;;5.26
27986;BMP280;15453;53.692;10.168;2023-04-03T03:52:49;103095.38;;;5.21
27986;BMP280;15453;53.692;10.168;2023-04-03T03:55:14;103097.22;;;5.21
27986;BMP280;15453;53.692;10.168;2023-04-03T03:57:40;103100.09;;;5.19
27986;BMP280;15453;53.692;10.168;2023-04-03T04:00:06;103092.09;;;5.18
27986;BMP280;15453;53.692;10.168;2023-04-03T04:02:32;103107.72;;;5.16
27986;BMP280;15453;53.692;10.168;2023-04-03T04:04:57;103103.28;;;5.15
27986;BMP280;15453;53.692;10.168;2023-04-03T04:07:23;103100.88;;;5.12
27986;BMP280;15453;53.692;10.168;2023-04-03T04:09:48;103104.63;;;5.11
27986;BMP280;15453;53.692;10.168;2023-04-03T04:12:13;103098.63;;;5.07
27986;BMP280;15453;53.692;10.168;2023-04-03T04:14:39;103095.22;;;5.05
27986;BMP280;15453;53.692;10.168;2023-04-03T04:17:05;103104.38;;;5.04
27986;BMP280;15453;53.692;10.168;2023-04-03T04:19:30;103107.25;;;5.03
27986;BMP280;15453;53.692;10.168;2023-04-03T04:21:55;103097.72;;;4.99
27986;BMP280;15453;53.692;10.168;2023-04-03T04:24:20;103097.00;;;4.97
27986;BMP280;15453;53.692;10.168;2023-04-03T04:26:48;103106.16;;;4.96
27986;BMP280;15453;53.692;10.168;2023-04-03T04:29:13;103102.59;;;4.95
27986;BMP280;15453;53.692;10.168;2023-04-03T04:31:38;103094.78;;;4.92
27986;BMP280;15453;53.692;10.168;2023-04-03T04:34:03;103103.06;;;4.91
27986;BMP280;15453;53.692;10.168;2023-04-03T04:36:29;103107.09;;;4.87
27986;BMP280;15453;53.692;10.168;2023-04-03T04:38:54;103110.97;;;4.84
27986;BMP280;15453;53.692;10.168;2023-04-03T04:41:20;103117.56;;;4.82
27986;BMP280;15453;53.692;10.168;2023-04-03T04:43:48;103117.56;;;4.82
27986;BMP280;15453;53.692;10.168;2023-04-03T04:46:13;103107.31;;;4.76
27986;BMP280;15453;53.692;10.168;2023-04-03T04:48:38;103129.19;;;4.74
27986;BMP280;15453;53.692;10.168;2023-04-03T04:51:04;103129.19;;;4.74
27986;BMP280;15453;53.692;10.168;2023-04-03T04:53:29;103132.22;;;4.71
27986;BMP280;15453;53.692;10.168;2023-04-03T04:55:55;103134.38;;;4.68
27986;BMP280;15453;53.692;10.168;2023-04-03T04:58:20;103138.97;;;4.67
27986;BMP280;15453;53.692;10.168;2023-04-03T05:00:45;103140.97;;;4.65
27986;BMP280;15453;53.692;10.168;2023-04-03T05:03:11;103139.28;;;4.64
27986;BMP280;15453;53.692;10.168;2023-04-03T05:05:36;103137.72;;;4.62
27986;BMP280;15453;53.692;10.168;2023-04-03T05:08:03;103136.00;;;4.61
27986;BMP280;15453;53.692;10.168;2023-04-03T05:10:29;103136.31;;;4.58
27986;BMP280;15453;53.692;10.168;2023-04-03T05:12:54;103148.19;;;4.57
27986;BMP280;15453;53.692;10.168;2023-04-03T05:15:19;103145.47;;;4.57
27986;BMP280;15453;53.692;10.168;2023-04-03T05:17:45;103148.34;;;4.55
27986;BMP280;15453;53.692;10.168;2023-04-03T05:20:10;103145.63;;;4.55
27986;BMP280;15453;53.692;10.168;2023-04-03T05:22:36;103151.88;;;4.56
27986;BMP280;15453;53.692;10.168;2023-04-03T05:25:01;103155.47;;;4.56
27986;BMP280;15453;53.692;10.168;2023-04-03T05:27:26;103155.84;;;4.61
27986;BMP280;15453;53.692;10.168;2023-04-03T05:29:54;103155.84;;;4.61
27986;BMP280;15453;53.692;10.168;2023-04-03T05:32:19;103152.44;;;4.59
27986;BMP280;15453;53.692;10.168;2023-04-03T05:34:45;103157.72;;;4.61
27986;BMP280;15453;53.692;10.168;2023-04-03T05:37:10;103154.84;;;4.62
27986;BMP280;15453;53.692;10.168;2023-04-03T05:39:35;103160.13;;;4.64
27986;BMP280;15453;53.692;10.168;2023-04-03T05:42:01;103163.69;;;4.64
27986;BMP280;15453;53.692;10.168;2023-04-03T05:44:26;103166.28;;;4.66
27986;BMP280;15453;53.692;10.168;2023-04-03T05:46:51;103167.69;;;4.70
27986;BMP280;15453;53.692;10.168;2023-04-03T05:49:17;103173.78;;;4.72
27986;BMP280;15453;53.692;10.168;2023-04-03T05:51:42;103168.94;;;4.75
27986;BMP280;15453;53.692;10.168;2023-04-03T05:54:17;103170.63;;;4.76
27986;BMP280;15453;53.692;10.168;2023-04-03T05:56:43;103168.59;;;4.78
27986;BMP280;15453;53.692;10.168;2023-04-03T05:59:08;103177.69;;;4.87
27986;BMP280;15453;53.692;10.168;2023-04-03T06:01:34;103177.69;;;4.87
27986;BMP280;15453;53.692;10.168;2023-04-03T06:03:59;103181.25;;;4.87
27986;BMP280;15453;53.692;10.168;2023-04-03T06:06:25;103173.69;;;4.91
27986;BMP280;15453;53.692;10.168;2023-04-03T06:08:50;103176.94;;;4.94
27986;BMP280;15453;53.692;10.168;2023-04-03T06:11:16;103176.63;;;4.97
27986;BMP280;15453;53.692;10.168;2023-04-03T06:13:41;103181.59;;;5.02
27986;BMP280;15453;53.692;10.168;2023-04-03T06:16:09;103182.16;;;5.05
27986;BMP280;15453;53.692;10.168;2023-04-03T06:18:36;103183.56;;;5.09
27986;BMP280;15453;53.692;10.168;2023-04-03T06:21:02;103179.75;;;5.20
27986;BMP280;15453;53.692;10.168;2023-04-03T06:23:28;103179.75;;;5.20
27986;BMP280;15453;53.692;10.168;2023-04-03T06:25:53;103180.44;;;5.22
27986;BMP280;15453;53.692;10.168;2023-04-03T06:28:19;103190.84;;;5.26
27986;BMP280;15453;53.692;10.168;2023-04-03T06:30:44;103180.81;;;5.27
27986;BMP280;15453;53.692;10.168;2023-04-03T06:33:10;103180.50;;;5.30
27986;BMP280;15453;53.692;10.168;2023-04-03T06:35:35;103197.03;;;5.36
27986;BMP280;15453;53.692;10.168;2023-04-03T06:38:01;103197.03;;;5.36
27986;BMP280;15453;53.692;10.168;2023-04-03T06:40:29;103194.31;;;5.36
27986;BMP280;15453;53.692;10.168;2023-04-03T06:42:54;103196.06;;;5.37
27986;BMP280;15453;53.692;10.168;2023-04-03T06:45:19;103194.03;;;5.39
27986;BMP280;15453;53.692;10.168;2023-04-03T06:47:46;103193.88;;;5.41
27986;BMP280;15453;53.692;10.168;2023-04-03T06:50:12;103192.69;;;5.43
27986;BMP280;15453;53.692;10.168;2023-04-03T06:52:39;103204.97;;;5.47
27986;BMP280;15453;53.692;10.168;2023-04-03T06:55:05;103202.16;;;5.57
27986;BMP280;15453;53.692;10.168;2023-04-03T06:57:30;103202.16;;;5.57
27986;BMP280;15453;53.692;10.168;2023-04-03T06:59:55;103201.16;;;5.58
27986;BMP280;15453;53.692;10.168;2023-04-03T07:02:20;103205.56;;;5.59
27986;BMP280;15453;53.692;10.168;2023-04-03T07:04:46;103207.97;;;5.62
27986;BMP280;15453;53.692;10.168;2023-04-03T07:07:11;103204.78;;;5.66
27986;BMP280;15453;53.692;10.168;2023-04-03T07:09:37;103205.19;;;5.71
27986;BMP280;15453;53.692;10.168;2023-04-03T07:12:02;103207.75;;;5.73
27986;BMP280;15453;53.692;10.168;2023-04-03T07:14:27;103210.84;;;5.78
27986;BMP280;15453;53.692;10.168;2023-04-03T07:16:53;103211.25;;;5.83
27986;BMP280;15453;53.692;10.168;2023-04-03T07:19:18;103210.78;;;5.87
27986;BMP280;15453;53.692;10.168;2023-04-03T07:21:44;103220.28;;;5.91
27986;BMP280;15453;53.692;10.168;2023-04-03T07:24:10;103223.41;;;5.96
27986;BMP280;15453;53.692;10.168;2023-04-03T07:26:35;103207.47;;;6.01
27986;BMP280;15453;53.692;10.168;2023-04-03T07:29:01;103212.41;;;6.06
27986;BMP280;15453;53.692;10.168;2023-04-03T07:31:26;103221.81;;;6.11
27986;BMP280;15453;53.692;10.168;2023-04-03T07:33:51;103215.75;;;6.18
27986;BMP280;15453;53.692;10.168;2023-04-03T07:36:19;103226.88;;;6.32
27986;BMP280;15453;53.692;10.168;2023-04-03T07:38:44;103226.88;;;6.32
27986;BMP280;15453;53.692;10.168;2023-04-03T07:41:14;103211.22;;;6.34
27986;BMP280;15453;53.692;10.168;2023-04-03T07:43:40;103222.31;;;6.41
27986;BMP280;15453;53.692;10.168;2023-04-03T07:46:06;103217.94;;;6.48
27986;BMP280;15453;53.692;10.168;2023-04-03T07:48:31;103219.88;;;6.63
27986;BMP280;15453;53.692;10.168;2023-04-03T07:51:00;103219.88;;;6.63
27986;BMP280;15453;53.692;10.168;2023-04-03T07:53:26;103220.06;;;6.70
27986;BMP280;15453;53.692;10.168;2023-04-03T07:55:52;103223.53;;;6.80
27986;BMP280;15453;53.692;10.168;2023-04-03T07:58:20;103212.69;;;6.88
27986;BMP280;15453;53.692;10.168;2023-04-03T08:00:46;103209.09;;;6.95
27986;BMP280;15453;53.692;10.168;2023-04-03T08:03:13;103216.28;;;7.04
27986;BMP280;15453;53.692;10.168;2023-04-03T08:05:40;103214.44;;;7.13
27986;BMP280;15453;53.692;10.168;2023-04-03T08:08:06;103211.91;;;7.19
27986;BMP280;15453;53.692;10.168;2023-04-03T08:10:32;103211.91;;;7.27
27986;BMP280;15453;53.692;10.168;2023-04-03T08:12:58;103208.34;;;7.35
27986;BMP280;15453;53.692;10.168;2023-04-03T08:15:23;103210.53;;;7.39
27986;BMP280;15453;53.692;10.168;2023-04-03T08:17:48;103213.13;;;7.49
27986;BMP280;15453;53.692;10.168;2023-04-03T08:20:14;103220.63;;;7.55
27986;BMP280;15453;53.692;10.168;2023-04-03T08:22:39;103206.81;;;7.64
27986;BMP280;15453;53.692;10.168;2023-04-03T08:25:05;103201.34;;;7.72
27986;BMP280;15453;53.692;10.168;2023-04-03T08:27:31;103207.50;;;7.82
27986;BMP280;15453;53.692;10.168;2023-04-03T08:29:56;103198.78;;;7.87
27986;BMP280;15453;53.692;10.168;2023-04-03T08:32:22;103203.72;;;7.99
27986;BMP280;15453;53.692;10.168;2023-04-03T08:34:48;103203.72;;;7.99
27986;BMP280;15453;53.692;10.168;2023-04-03T08:37:13;103201.81;;;8.08
27986;BMP280;15453;53.692;10.168;2023-04-03T08:39:38;103203.88;;;8.14
27986;BMP280;15453;53.692;10.168;2023-04-03T08:42:13;103202.16;;;8.21
27986;BMP280;15453;53.692;10.168;2023-04-03T08:44:54;103199.78;;;8.26
27986;BMP280;15453;53.692;10.168;2023-04-03T08:47:28;103197.22;;;8.32
27986;BMP280;15453;53.692;10.168;2023-04-03T08:49:57;103194.44;;;8.40
27986;BMP280;15453;53.692;10.168;2023-04-03T08:52:35;103190.13;;;8.46
27986;BMP280;15453;53.692;10.168;2023-04-03T08:55:20;103190.50;;;8.51
27986;BMP280;15453;53.692;10.168;2023-04-03T08:57:48;103191.84;;;8.55
27986;BMP280;15453;53.692;10.168;2023-04-03T09:02:54;103190.75;;;8.72
27986;BMP280;15453;53.692;10.168;2023-04-03T09:07:54;103198.72;;;8.81
27986;BMP280;15453;53.692;10.168;2023-04-03T09:10:28;103198.84;;;8.88
27986;BMP280;15453;53.692;10.168;2023-04-03T09:15:53;103192.00;;;8.92
27986;BMP280;15453;53.692;10.168;2023-04-03T09:18:23;103194.47;;;9.01
27986;BMP280;15453;53.692;10.168;2023-04-03T09:23:56;103182.16;;;9.05
27986;BMP280;15453;53.692;10.168;2023-04-03T09:26:29;103186.53;;;9.14
27986;BMP280;15453;53.692;10.168;2023-04-03T09:28:58;103171.84;;;9.15
27986;BMP280;15453;53.692;10.168;2023-04-03T09:31:27;103180.47;;;9.27
27986;BMP280;15453;53.692;10.168;2023-04-03T09:33:58;103182.31;;;9.34
27986;BMP280;15453;53.692;10.168;2023-04-03T09:39:16;103182.34;;;9.49
27986;BMP280;15453;53.692;10.168;2023-04-03T09:41:44;103180.59;;;9.56
27986;BMP280;15453;53.692;10.168;2023-04-03T09:44:21;103176.28;;;9.61
27986;BMP280;15453;53.692;10.168;2023-04-03T09:46:47;103177.22;;;9.68
27986;BMP280;15453;53.692;10.168;2023-04-03T09:49:12;103180.75;;;9.77
27986;BMP280;15453;53.692;10.168;2023-04-03T09:51:38;103174.53;;;9.83
27986;BMP280;15453;53.692;10.168;2023-04-03T09:54:32;103168.88;;;9.84
27986;BMP280;15453;53.692;10.168;2023-04-03T09:57:04;103163.03;;;9.87
27986;BMP280;15453;53.692;10.168;2023-04-03T09:59:31;103155.69;;;9.88
27986;BMP280;15453;53.692;10.168;2023-04-03T10:02:03;103159.34;;;9.95
27986;BMP280;15453;53.692;10.168;2023-04-03T10:04:40;103156.53;;;10.03
27986;BMP280;15453;53.692;10.168;2023-04-03T10:07:28;103173.00;;;10.17
27986;BMP280;15453;53.692;10.168;2023-04-03T10:12:42;103160.00;;;10.19
27986;BMP280;15453;53.692;10.168;2023-04-03T10:15:12;103163.19;;;10.23
27986;BMP280;15453;53.692;10.168;2023-04-03T10:17:49;103148.28;;;10.25
27986;BMP280;15453;53.692;10.168;2023-04-03T10:20:36;103152.50;;;10.28
27986;BMP280;15453;53.692;10.168;2023-04-03T10:23:24;103156.31;;;10.27
27986;BMP280;15453;53.692;10.168;2023-04-03T10:26:05;103152.59;;;10.34
27986;BMP280;15453;53.692;10.168;2023-04-03T10:29:09;103148.44;;;10.38
27986;BMP280;15453;53.692;10.168;2023-04-03T10:31:56;103140.91;;;10.40
27986;BMP280;15453;53.692;10.168;2023-04-03T10:34:28;103133.81;;;10.46
27986;BMP280;15453;53.692;10.168;2023-04-03T10:42:38;103134.66;;;10.46
27986;BMP280;15453;53.692;10.168;2023-04-03T10:45:24;103128.34;;;10.46
27986;BMP280;15453;53.692;10.168;2023-04-03T10:50:49;103127.66;;;10.44
27986;BMP280;15453;53.692;10.168;2023-04-03T10:53:41;103125.97;;;10.43
27986;BMP280;15453;53.692;10.168;2023-04-03T10:56:30;103122.38;;;10.42
27986;BMP280;15453;53.692;10.168;2023-04-03T10:59:08;103119.81;;;10.41
27986;BMP280;15453;53.692;10.168;2023-04-03T11:01:41;103118.97;;;10.40
27986;BMP280;15453;53.692;10.168;2023-04-03T11:04:07;103120.31;;;10.44
27986;BMP280;15453;53.692;10.168;2023-04-03T11:06:38;103107.06;;;10.48
27986;BMP280;15453;53.692;10.168;2023-04-03T11:09:15;103111.31;;;10.50
27986;BMP280;15453;53.692;10.168;2023-04-03T11:11:44;103115.28;;;10.48
27986;BMP280;15453;53.692;10.168;2023-04-03T11:14:31;103095.25;;;10.47
27986;BMP280;15453;53.692;10.168;2023-04-03T11:19:46;103089.19;;;10.52
27986;BMP280;15453;53.692;10.168;2023-04-03T11:25:10;103084.63;;;10.73
27986;BMP280;15453;53.692;10.168;2023-04-03T11:27:59;103077.66;;;10.92
27986;BMP280;15453;53.692;10.168;2023-04-03T11:30:46;103068.38;;;11.14
27986;BMP280;15453;53.692;10.168;2023-04-03T11:33:15;103068.78;;;11.38
27986;BMP280;15453;53.692;10.168;2023-04-03T11:35:45;103067.03;;;11.58
27986;BMP280;15453;53.692;10.168;2023-04-03T11:38:26;103074.59;;;11.71
27986;BMP280;15453;53.692;10.168;2023-04-03T11:40:55;103071.03;;;11.77
27986;BMP280;15453;53.692;10.168;2023-04-03T11:43:23;103069.56;;;11.81
27986;BMP280;15453;53.692;10.168;2023-04-03T11:46:10;103068.69;;;11.80
27986;BMP280;15453;53.692;10.168;2023-04-03T11:53:52;103070.66;;;11.59
27986;BMP280;15453;53.692;10.168;2023-04-03T12:04:16;103054.38;;;11.30
27986;BMP280;15453;53.692;10.168;2023-04-03T12:06:50;103054.38;;;11.30
27986;BMP280;15453;53.692;10.168;2023-04-03T12:09:34;103056.91;;;11.31
27986;BMP280;15453;53.692;10.168;2023-04-03T12:12:21;103060.34;;;11.40
27986;BMP280;15453;53.692;10.168;2023-04-03T12:14:47;103043.94;;;11.46
27986;BMP280;15453;53.692;10.168;2023-04-03T12:17:22;103053.47;;;11.78
27986;BMP280;15453;53.692;10.168;2023-04-03T12:19:48;103053.47;;;11.78
27986;BMP280;15453;53.692;10.168;2023-04-03T12:22:16;103041.75;;;11.91
27986;BMP280;15453;53.692;10.168;2023-04-03T12:24:44;103034.44;;;12.04
27986;BMP280;15453;53.692;10.168;2023-04-03T12:27:23;103042.06;;;12.15
27986;BMP280;15453;53.692;10.168;2023-04-03T12:32:48;103039.41;;;12.35
27986;BMP280;15453;53.692;10.168;2023-04-03T12:35:27;103034.59;;;12.43
27986;BMP280;15453;53.692;10.168;2023-04-03T12:46:02;103026.22;;;12.77
27986;BMP280;15453;53.692;10.168;2023-04-03T12:48:30;103031.72;;;12.77
27986;BMP280;15453;53.692;10.168;2023-04-03T12:50:58;103030.03;;;12.76
27986;BMP280;15453;53.692;10.168;2023-04-03T12:53:34;103018.38;;;12.68
27986;BMP280;15453;53.692;10.168;2023-04-03T12:56:29;103016.47;;;12.68
27986;BMP280;15453;53.692;10.168;2023-04-03T12:59:22;103028.34;;;12.75
27986;BMP280;15453;53.692;10.168;2023-04-03T13:01:59;103030.88;;;12.83
27986;BMP280;15453;53.692;10.168;2023-04-03T13:04:25;103014.38;;;12.83
27986;BMP280;15453;53.692;10.168;2023-04-03T13:06:51;103024.13;;;12.86
27986;BMP280;15453;53.692;10.168;2023-04-03T13:09:30;103012.47;;;12.84
27986;BMP280;15453;53.692;10.168;2023-04-03T13:12:00;103012.25;;;12.79
27986;BMP280;15453;53.692;10.168;2023-04-03T13:14:26;103016.28;;;12.83
27986;BMP280;15453;53.692;10.168;2023-04-03T13:17:10;103022.00;;;12.88
27986;BMP280;15453;53.692;10.168;2023-04-03T13:19:36;103006.78;;;12.92
27986;BMP280;15453;53.692;10.168;2023-04-03T13:22:06;103007.88;;;13.10
27986;BMP280;15453;53.692;10.168;2023-04-03T13:24:37;103007.88;;;13.10
27986;BMP280;15453;53.692;10.168;2023-04-03T13:27:04;103002.16;;;12.99
27986;BMP280;15453;53.692;10.168;2023-04-03T13:29:37;103006.59;;;13.19
27986;BMP280;15453;53.692;10.168;2023-04-03T13:32:03;103007.47;;;13.26
27986;BMP280;15453;53.692;10.168;2023-04-03T13:34:45;102996.03;;;13.29
27986;BMP280;15453;53.692;10.168;2023-04-03T13:37:28;102993.03;;;13.31
27986;BMP280;15453;53.692;10.168;2023-04-03T13:42:35;102996.03;;;13.42
27986;BMP280;15453;53.692;10.168;2023-04-03T13:45:23;102988.38;;;13.44
27986;BMP280;15453;53.692;10.168;2023-04-03T13:47:50;102987.09;;;13.47
27986;BMP280;15453;53.692;10.168;2023-04-03T13:52:46;102991.53;;;13.61
27986;BMP280;15453;53.692;10.168;2023-04-03T13:55:23;102991.53;;;13.61
27986;BMP280;15453;53.692;10.168;2023-04-03T13:58:00;102974.16;;;13.67
27986;BMP280;15453;53.692;10.168;2023-04-03T14:00:48;102974.16;;;13.67
27986;BMP280;15453;53.692;10.168;2023-04-03T14:03:24;102974.78;;;13.75
27986;BMP280;15453;53.692;10.168;2023-04-03T14:05:50;102965.84;;;13.80
27986;BMP280;15453;53.692;10.168;2023-04-03T14:08:15;102965.84;;;13.80
27986;BMP280;15453;53.692;10.168;2023-04-03T14:10:41;102971.31;;;13.86
27986;BMP280;15453;53.692;10.168;2023-04-03T14:13:11;102971.31;;;13.86
27986;BMP280;15453;53.692;10.168;2023-04-03T14:15:36;102963.91;;;13.87
27986;BMP280;15453;53.692;10.168;2023-04-03T14:18:02;102958.59;;;13.92
27986;BMP280;15453;53.692;10.168;2023-04-03T14:20:27;102960.50;;;13.91
27986;BMP280;15453;53.692;10.168;2023-04-03T14:22:53;102960.50;;;13.91
27986;BMP280;15453;53.692;10.168;2023-04-03T14:25:20;102964.50;;;13.95
27986;BMP280;15453;53.692;10.168;2023-04-03T14:27:49;102964.50;;;13.95
27986;BMP280;15453;53.692;10.168;2023-04-03T14:30:22;102965.38;;;13.89
27986;BMP280;15453;53.692;10.168;2023-04-03T14:32:48;102965.38;;;13.89
27986;BMP280;15453;53.692;10.168;2023-04-03T14:35:15;102962.69;;;13.76
27986;BMP280;15453;53.692;10.168;2023-04-03T14:37:40;102947.22;;;13.75
27986;BMP280;15453;53.692;10.168;2023-04-03T14:40:08;102961.38;;;13.85
27986;BMP280;15453;53.692;10.168;2023-04-03T14:42:36;102961.38;;;13.85
27986;BMP280;15453;53.692;10.168;2023-04-03T14:45:05;102957.38;;;14.32
27986;BMP280;15453;53.692;10.168;2023-04-03T14:47:31;102960.78;;;14.65
27986;BMP280;15453;53.692;10.168;2023-04-03T14:50:00;102960.78;;;14.65
27986;BMP280;15453;53.692;10.168;2023-04-03T14:52:32;102948.09;;;15.37
27986;BMP280;15453;53.692;10.168;2023-04-03T14:54:58;102948.09;;;15.37
27986;BMP280;15453;53.692;10.168;2023-04-03T14:57:25;102935.66;;;16.00
27986;BMP280;15453;53.692;10.168;2023-04-03T14:59:52;102936.72;;;16.17
27986;BMP280;15453;53.692;10.168;2023-04-03T15:02:37;102936.72;;;16.17
27986;BMP280;15453;53.692;10.168;2023-04-03T15:05:05;102937.72;;;16.52
27986;BMP280;15453;53.692;10.168;2023-04-03T15:07:34;102935.13;;;16.69